Portada
METAR-TAF:

METAR-TAF

Aeropuertos :

Base Aérea de Armilla

Granada, España

latitud: 37-08N, longitud: 003-38-08W, altitud: 700 m

Observación

El informe se hizo hace 7 horas y 45 minutos, a las 19:00 UTC
Viento 6 kt del sur-suroeste, variando entre sur y suroeste
Temperatura 8°C
Humedad 71%
Presión 1017 hPa
Visibilidad 10 km o más
Escasas nubes a una altura de 3000 ft
Nubes dispersas a una altura de 8000 ft

METAR: LEGA 231900Z 20006KT 170V230 9999 FEW030 SCT080 08/03 Q1017

Hora: 03:45 (02:45 UTC)

Pronóstico

El informe se hizo hace 12 horas y 45 minutos, a las 14:00 UTC
Pronóstico válido del 23 a las 15 UTC al 23 a las 24 UTC
Viento 12 kt del sur
Visibilidad 10 km o más
Escasas nubes a una altura de 3000 ft
Nubes dispersas a una altura de 4000 ft

TAF: LEGA 231400Z 2315/2324 18012KT 9999 FEW030 SCT040

Observaciones y pronósticos meteorológicos de más de 4000 aeropuertos (mensajes METAR y TAF).

Los puntos amarillos y rojos representan las estaciones disponibles.

Ponga el ratón en el punto deseado para ver el nombre de la estación.

Haga clic para ver las observaciones y los pronósticos meteorológicos.

Para cambiar el mapa : haga clic en los botones verdes con una cruz de color negro para hacer un zoom, en el botón verde con un guión para alejar o en las flechas verdes para mapas adyacentes.


METAR-TAF: